KNIP/NIP METAR and TAF weather

Enter ICAO airport designator
Station Type Date Time Source
KNIP METAR 2020/01/26 03:53 UTC NOAA

KNIP 260353Z 31006KT 10SM BKN250 12/02 A3012 RMK AO2 SLP194 T01170022


Station Type Date Time Source
KNIP Decoded METAR 2020/01/26 03:53 UTC NOAA

JACKSONVILLE NAVAL AIR STN, FL, United States (KNIP) 30-14N 81-40W 8M
Jan 25, 2020 - 10:53 PM EST / 2020.01.26 0353 UTC
Wind: from the NW (310 degrees) at 7 MPH (6 KT):0
Visibility: 10 mile(s):0
Sky conditions: mostly cloudy
Temperature: 53.1 F (11.7 C)
Dew Point: 36.0 F (2.2 C)
Relative Humidity: 52%
Pressure (altimeter): 30.12 in. Hg (1019 hPa)
ob: KNIP 260353Z 31006KT 10SM BKN250 12/02 A3012 RMK AO2 SLP194 T01170022
cycle: 4

Station Type Date Time Source
KNIP TAF 2020/01/25 23:06 UTC NOAA

TAF KNIP 2523/2623 29005KT 9999 FEW200 QNH3003INS
FM261500 32005KT 9999 FEW030 SCT060 BKN250 QNH3008INS
FM262200 VRB06KT 9999 SCT030 BKN060 OVC250 QNH3001INS T07/2610Z T19/2620Z FN00085

Example: see airport list